Time;durP1;ratioP1;P1;durP2;ratioP2;P2;SDS_P1;SDS_P2;PMS_P1;PMS_P2;Temp;Humidity;BMP_temperature;BMP_pressure;BME280_temperature;BME280_humidity;BME280_pressure;Samples;Min_cycle;Max_cycle;Signal;HPM_P1;HPM_P2
2021/08/05 00:01:08;;;;;;;4.00;3.57;;;16.70;99.90;;;;;;5049015;28;20232;-80
2021/08/05 00:03:37;;;;;;;4.60;3.00;;;16.70;99.90;;;;;;5049281;28;20232;-80
2021/08/05 00:06:23;;;;;;;3.20;2.90;;;16.70;99.90;;;;;;5043144;28;20236;-80
2021/08/05 00:08:53;;;;;;;4.30;3.00;;;16.70;99.90;;;;;;5047438;28;20240;-79
2021/08/05 00:11:21;;;;;;;3.97;3.00;;;16.60;99.90;;;;;;5054803;28;20242;-79
2021/08/05 00:13:50;;;;;;;5.03;3.20;;;16.60;99.90;;;;;;5085588;28;20250;-80
2021/08/05 00:16:18;;;;;;;3.47;3.13;;;16.60;99.90;;;;;;5065882;28;20244;-80
2021/08/05 00:18:46;;;;;;;3.67;3.37;;;16.60;99.90;;;;;;5049911;28;20720;-79
2021/08/05 00:21:16;;;;;;;5.20;3.00;;;16.60;99.90;;;;;;5060137;28;20239;-79
2021/08/05 00:23:44;;;;;;;3.37;3.07;;;16.60;99.90;;;;;;5069842;28;20308;-79
2021/08/05 00:26:14;;;;;;;4.70;3.50;;;16.60;99.90;;;;;;5070100;28;20241;-80
2021/08/05 00:28:43;;;;;;;4.63;3.40;;;16.60;99.90;;;;;;5062443;28;20225;-79
2021/08/05 00:31:12;;;;;;;5.20;3.17;;;16.60;99.90;;;;;;5052943;28;20242;-80
2021/08/05 00:33:40;;;;;;;4.00;3.50;;;16.60;99.90;;;;;;5068187;28;20259;-79
2021/08/05 00:36:09;;;;;;;4.43;3.80;;;16.60;99.90;;;;;;5085443;28;20235;-79
2021/08/05 00:38:37;;;;;;;4.20;3.80;;;16.50;99.90;;;;;;5067165;28;20293;-79
2021/08/05 00:41:06;;;;;;;3.97;3.67;;;16.50;99.90;;;;;;5064192;28;20700;-80
2021/08/05 00:43:35;;;;;;;5.33;4.00;;;16.50;99.90;;;;;;5047987;28;20314;-80
2021/08/05 00:46:04;;;;;;;4.53;3.93;;;16.40;99.90;;;;;;5049875;28;20293;-80
2021/08/05 00:48:32;;;;;;;4.23;3.73;;;16.40;99.90;;;;;;5048897;28;20247;-80
2021/08/05 00:51:01;;;;;;;5.80;4.03;;;16.30;99.90;;;;;;5049288;28;20743;-79
2021/08/05 00:53:30;;;;;;;4.70;3.80;;;16.30;99.90;;;;;;5047951;28;20479;-79
2021/08/05 00:55:58;;;;;;;4.80;4.37;;;16.30;99.90;;;;;;5048025;28;20231;-80
2021/08/05 00:58:26;;;;;;;4.50;4.10;;;16.30;99.90;;;;;;5048146;28;20243;-80
2021/08/05 01:01:04;;;;;;;5.40;4.20;;;16.30;99.90;;;;;;5047574;28;20242;-80
2021/08/05 01:03:37;;;;;;;4.67;3.60;;;16.30;99.90;;;;;;5049776;28;20696;-79
2021/08/05 01:06:18;;;;;;;4.03;3.50;;;16.30;99.90;;;;;;5067206;28;20294;-80
2021/08/05 01:08:53;;;;;;;3.77;3.47;;;16.30;99.90;;;;;;5068164;28;20421;-79
2021/08/05 01:11:25;;;;;;;4.00;3.60;;;16.30;99.90;;;;;;5054862;28;20245;-79
2021/08/05 01:13:56;;;;;;;4.10;3.70;;;16.20;99.90;;;;;;5048919;28;20243;-80
2021/08/05 01:16:31;;;;;;;4.40;4.00;;;16.20;99.90;;;;;;5047319;28;20240;-79
2021/08/05 01:19:07;;;;;;;4.80;3.90;;;16.20;99.90;;;;;;5048661;28;20285;-80
2021/08/05 01:21:45;;;;;;;4.43;4.03;;;16.20;99.90;;;;;;5062041;28;20234;-80
2021/08/05 01:24:17;;;;;;;4.90;4.40;;;16.20;99.90;;;;;;5050559;28;20244;-79
2021/08/05 01:26:58;;;;;;;4.73;4.20;;;16.20;99.90;;;;;;5046272;28;20294;-79
2021/08/05 01:29:30;;;;;;;4.47;4.07;;;16.20;99.90;;;;;;5049090;28;20247;-79
2021/08/05 01:31:59;;;;;;;7.47;4.60;;;16.20;99.90;;;;;;5058403;28;20899;-81
2021/08/05 01:34:28;;;;;;;4.63;4.23;;;16.20;99.90;;;;;;5065132;28;20261;-80
2021/08/05 01:36:57;;;;;;;5.30;4.80;;;16.20;99.90;;;;;;5043974;28;20730;-79
2021/08/05 01:39:27;;;;;;;4.83;4.20;;;16.30;99.90;;;;;;5031140;28;20707;-79
2021/08/05 01:41:57;;;;;;;4.40;4.00;;;16.30;99.90;;;;;;5053260;28;20692;-80
2021/08/05 01:44:28;;;;;;;5.27;4.47;;;16.30;99.90;;;;;;5045844;28;20319;-79
2021/08/05 01:46:58;;;;;;;7.40;4.23;;;16.30;99.90;;;;;;5043295;28;20231;-79
2021/08/05 01:49:27;;;;;;;5.17;4.53;;;16.20;99.90;;;;;;5046777;28;20314;-79
2021/08/05 01:51:57;;;;;;;5.07;4.57;;;16.20;99.90;;;;;;5048142;28;20234;-80
2021/08/05 01:54:25;;;;;;;4.60;4.20;;;16.20;99.90;;;;;;5048218;28;20244;-79
2021/08/05 01:56:53;;;;;;;5.57;4.70;;;16.30;99.90;;;;;;5047233;28;20243;-80
2021/08/05 01:59:23;;;;;;;4.47;4.03;;;16.30;99.90;;;;;;5052139;28;20232;-79
2021/08/05 02:01:52;;;;;;;4.73;4.33;;;16.20;99.90;;;;;;5046941;28;20263;-80
2021/08/05 02:04:33;;;;;;;6.17;4.90;;;16.20;99.90;;;;;;5047109;28;20232;-79
2021/08/05 02:07:08;;;;;;;4.73;4.33;;;16.20;99.90;;;;;;5046719;28;20614;-79
2021/08/05 02:09:48;;;;;;;6.73;4.53;;;16.20;99.90;;;;;;5033919;28;20235;-80
2021/08/05 02:12:17;;;;;;;5.27;4.77;;;16.20;99.90;;;;;;5026535;28;20244;-79
2021/08/05 02:14:50;;;;;;;4.87;3.83;;;16.20;99.90;;;;;;5027059;28;20241;-79
2021/08/05 02:17:19;;;;;;;5.80;4.53;;;16.20;99.90;;;;;;5039219;28;20236;-80
2021/08/05 02:19:47;;;;;;;6.50;4.80;;;16.20;99.90;;;;;;5047863;28;20246;-80
2021/08/05 02:22:19;;;;;;;5.07;4.57;;;16.20;99.90;;;;;;5033407;28;20235;-79
2021/08/05 02:24:48;;;;;;;5.40;4.90;;;16.20;99.90;;;;;;5028202;28;20245;-79
2021/08/05 02:27:16;;;;;;;6.60;4.87;;;16.20;99.90;;;;;;5052857;28;20695;-79
2021/08/05 02:29:44;;;;;;;5.47;4.90;;;16.20;99.90;;;;;;5060482;28;20767;-80
2021/08/05 02:32:14;;;;;;;6.20;4.97;;;16.10;99.90;;;;;;5059214;28;20234;-79
2021/08/05 02:34:43;;;;;;;5.23;4.77;;;16.10;99.90;;;;;;5067775;28;20768;-80
2021/08/05 02:37:13;;;;;;;8.30;5.37;;;16.20;99.90;;;;;;5042190;28;20252;-79
2021/08/05 02:39:42;;;;;;;5.97;5.37;;;16.10;99.90;;;;;;5031908;28;20766;-79
2021/08/05 02:42:10;;;;;;;5.57;4.20;;;16.20;99.90;;;;;;5058733;28;20231;-80
2021/08/05 02:44:39;;;;;;;5.03;4.53;;;16.10;99.90;;;;;;5067628;28;20239;-79
2021/08/05 02:47:08;;;;;;;5.67;4.70;;;16.10;99.90;;;;;;5043556;28;20494;-79
2021/08/05 02:49:37;;;;;;;5.87;4.87;;;16.20;99.90;;;;;;5028551;28;20262;-79
2021/08/05 02:52:06;;;;;;;6.33;5.07;;;16.20;99.90;;;;;;5050849;28;20654;-79
2021/08/05 02:54:35;;;;;;;6.30;4.87;;;16.20;99.90;;;;;;5028360;28;20778;-80
2021/08/05 02:57:03;;;;;;;5.73;5.23;;;16.20;99.90;;;;;;5048969;28;20711;-80
2021/08/05 02:59:33;;;;;;;8.07;5.67;;;16.10;99.90;;;;;;5083143;28;20242;-79
2021/08/05 03:02:02;;;;;;;6.90;4.73;;;16.10;99.90;;;;;;5047757;28;20235;-80
2021/08/05 03:04:32;;;;;;;7.63;5.57;;;16.10;99.90;;;;;;5047958;28;20301;-79
2021/08/05 03:07:02;;;;;;;7.43;5.57;;;16.10;99.90;;;;;;5057592;28;20242;-80
2021/08/05 03:09:30;;;;;;;5.60;5.03;;;16.10;99.90;;;;;;5067584;28;20231;-81
2021/08/05 03:11:58;;;;;;;6.50;5.00;;;16.10;99.90;;;;;;5051822;28;20233;-80
2021/08/05 03:14:26;;;;;;;7.70;5.20;;;16.00;99.90;;;;;;5047139;28;20228;-79
2021/08/05 03:16:55;;;;;;;5.20;4.80;;;16.00;99.90;;;;;;5047227;28;22404;-79
2021/08/05 03:19:23;;;;;;;7.03;5.07;;;16.10;99.90;;;;;;5047831;28;20892;-80
2021/08/05 03:21:51;;;;;;;8.43;5.20;;;16.10;99.90;;;;;;5051765;28;20242;-80
2021/08/05 03:24:20;;;;;;;7.47;5.13;;;16.10;99.90;;;;;;5047230;28;20243;-80
2021/08/05 03:26:49;;;;;;;7.70;5.30;;;16.00;99.90;;;;;;5047083;28;20572;-79
2021/08/05 03:29:17;;;;;;;5.93;5.33;;;16.00;99.90;;;;;;5047531;28;20259;-80
2021/08/05 03:31:45;;;;;;;6.87;5.13;;;16.00;99.90;;;;;;5047595;28;20254;-79
2021/08/05 03:34:13;;;;;;;5.90;5.03;;;16.00;99.90;;;;;;5047138;28;20635;-79
2021/08/05 03:36:41;;;;;;;5.90;5.30;;;16.00;99.90;;;;;;5047400;28;20573;-80
2021/08/05 03:39:09;;;;;;;7.27;5.20;;;16.00;99.90;;;;;;5047372;28;20711;-80
2021/08/05 03:41:39;;;;;;;6.17;5.23;;;16.00;99.90;;;;;;5050776;28;20232;-79
2021/08/05 03:44:07;;;;;;;5.60;5.07;;;16.00;99.90;;;;;;5047269;28;20290;-80
2021/08/05 03:46:36;;;;;;;7.13;5.20;;;16.00;99.90;;;;;;5053667;28;20243;-80
2021/08/05 03:49:04;;;;;;;6.00;5.50;;;16.00;99.90;;;;;;5067499;28;20286;-80
2021/08/05 03:51:33;;;;;;;7.37;5.83;;;15.90;99.90;;;;;;5060414;28;20330;-79
2021/08/05 03:54:01;;;;;;;5.93;5.27;;;15.90;99.90;;;;;;5046381;28;20646;-79
2021/08/05 03:56:29;;;;;;;8.67;5.53;;;15.90;99.90;;;;;;5046823;28;20516;-79
2021/08/05 03:58:59;;;;;;;5.90;5.40;;;15.90;99.90;;;;;;5045606;28;20647;-80
2021/08/05 04:01:27;;;;;;;6.57;5.07;;;15.90;99.90;;;;;;5051690;28;20266;-79
2021/08/05 04:03:55;;;;;;;7.97;5.50;;;15.90;99.90;;;;;;5051555;28;20616;-80
2021/08/05 04:06:23;;;;;;;5.90;5.40;;;15.90;99.90;;;;;;5050422;28;20242;-80
2021/08/05 04:08:51;;;;;;;6.17;5.23;;;15.90;99.90;;;;;;5050788;28;20267;-80
2021/08/05 04:11:20;;;;;;;6.20;5.60;;;15.90;99.90;;;;;;5054802;28;20618;-79
2021/08/05 04:13:48;;;;;;;6.77;5.30;;;15.90;99.90;;;;;;5057771;28;20781;-79
2021/08/05 04:16:18;;;;;;;6.47;4.97;;;16.00;99.90;;;;;;5053959;28;20296;-79
2021/08/05 04:18:46;;;;;;;5.57;5.07;;;15.90;99.90;;;;;;5070216;28;20323;-80
2021/08/05 04:21:14;;;;;;;5.13;4.43;;;15.90;99.90;;;;;;5063153;28;20231;-79
2021/08/05 04:23:42;;;;;;;6.90;5.00;;;15.90;99.90;;;;;;5061608;28;20649;-80
2021/08/05 04:26:11;;;;;;;5.70;4.30;;;16.00;99.90;;;;;;5050026;28;20656;-79
2021/08/05 04:28:39;;;;;;;5.93;4.40;;;16.10;99.90;;;;;;5049565;28;20338;-79
2021/08/05 04:31:07;;;;;;;5.10;4.60;;;16.20;99.90;;;;;;5049870;28;20286;-80
2021/08/05 04:33:37;;;;;;;4.97;4.43;;;16.20;99.90;;;;;;5049446;28;20723;-80
2021/08/05 04:36:05;;;;;;;5.40;3.90;;;16.20;99.90;;;;;;5048563;28;20285;-80
2021/08/05 04:38:33;;;;;;;5.97;4.20;;;16.20;99.90;;;;;;5050669;28;20687;-79
2021/08/05 04:41:01;;;;;;;4.77;3.70;;;16.10;99.90;;;;;;5051960;28;20235;-79
2021/08/05 04:43:29;;;;;;;5.17;3.80;;;16.20;99.90;;;;;;5069850;28;20239;-79
2021/08/05 04:45:58;;;;;;;4.67;3.80;;;16.20;99.90;;;;;;5052769;28;20243;-79
2021/08/05 04:48:27;;;;;;;3.93;3.20;;;16.30;99.90;;;;;;5050147;28;20244;-79
2021/08/05 04:50:57;;;;;;;3.70;3.40;;;16.30;99.90;;;;;;5049850;28;21271;-79
2021/08/05 04:53:25;;;;;;;4.53;3.63;;;16.40;99.90;;;;;;5069556;28;20266;-79
2021/08/05 04:55:53;;;;;;;4.87;3.37;;;16.40;99.90;;;;;;5057449;28;20243;-80
2021/08/05 04:58:21;;;;;;;6.40;3.90;;;16.40;99.90;;;;;;5069932;28;20788;-80
2021/08/05 05:00:50;;;;;;;4.07;3.57;;;16.40;99.90;;;;;;5084835;28;20262;-79
2021/08/05 05:03:18;;;;;;;4.40;3.80;;;16.30;99.90;;;;;;5067961;28;20597;-80
2021/08/05 05:05:47;;;;;;;3.57;3.13;;;16.30;99.90;;;;;;5060191;28;20243;-80
2021/08/05 05:08:19;;;;;;;3.60;3.20;;;16.40;99.90;;;;;;5047924;28;20285;-79
2021/08/05 05:10:48;;;;;;;4.33;3.57;;;16.50;99.90;;;;;;5049843;28;20671;-80
2021/08/05 05:13:18;;;;;;;3.43;3.13;;;16.50;99.90;;;;;;5069343;28;20318;-80
2021/08/05 05:15:46;;;;;;;3.63;3.30;;;16.70;99.90;;;;;;5062252;28;20270;-80
2021/08/05 05:18:16;;;;;;;4.17;3.80;;;16.70;99.90;;;;;;5049511;28;20236;-80
2021/08/05 05:20:44;;;;;;;4.70;3.40;;;16.70;99.90;;;;;;5055299;28;20235;-80
2021/08/05 05:23:13;;;;;;;5.53;3.60;;;16.60;99.90;;;;;;5069054;28;20219;-79
2021/08/05 05:25:43;;;;;;;4.70;3.33;;;16.60;99.90;;;;;;5065784;28;20239;-80
2021/08/05 05:28:11;;;;;;;5.97;3.27;;;16.70;99.90;;;;;;5048893;28;20743;-80
2021/08/05 05:30:40;;;;;;;3.50;3.20;;;16.70;99.90;;;;;;5048961;28;20755;-80
2021/08/05 05:33:08;;;;;;;6.53;2.93;;;16.80;99.90;;;;;;5048462;28;20238;-80
2021/08/05 05:35:38;;;;;;;3.23;2.90;;;16.90;99.90;;;;;;5049231;28;20239;-80
2021/08/05 05:38:07;;;;;;;4.20;2.73;;;17.00;99.90;;;;;;5048251;28;20616;-80
2021/08/05 05:40:35;;;;;;;4.00;3.10;;;17.10;99.90;;;;;;5045409;28;20265;-80
2021/08/05 05:43:05;;;;;;;4.20;2.63;;;17.10;99.90;;;;;;5067584;28;20233;-80
2021/08/05 05:45:34;;;;;;;3.60;2.70;;;17.10;99.90;;;;;;5068518;28;20240;-81
2021/08/05 05:48:03;;;;;;;5.63;2.57;;;17.00;99.90;;;;;;5051491;28;20239;-81
2021/08/05 05:50:32;;;;;;;4.37;3.10;;;17.10;99.90;;;;;;5043446;28;20263;-81
2021/08/05 05:53:01;;;;;;;2.67;2.47;;;17.10;99.90;;;;;;5065401;28;20243;-80
2021/08/05 05:55:29;;;;;;;4.07;2.60;;;17.10;99.90;;;;;;5067237;28;20243;-80
2021/08/05 05:57:58;;;;;;;3.47;2.40;;;17.20;99.90;;;;;;5055132;28;20242;-81
2021/08/05 06:00:27;;;;;;;5.13;2.80;;;17.30;99.90;;;;;;5046877;28;20243;-81
2021/08/05 06:02:55;;;;;;;3.07;2.53;;;17.40;99.90;;;;;;5064214;28;20328;-80
2021/08/05 06:05:24;;;;;;;3.20;2.90;;;17.40;99.90;;;;;;5067318;28;20716;-81
2021/08/05 06:07:53;;;;;;;3.10;2.60;;;17.40;99.90;;;;;;5048850;28;20232;-80
2021/08/05 06:10:23;;;;;;;4.77;2.90;;;17.50;99.90;;;;;;5045734;28;20256;-81
2021/08/05 06:12:51;;;;;;;4.83;2.80;;;17.60;99.90;;;;;;5040100;28;20255;-81
2021/08/05 06:15:20;;;;;;;3.90;2.70;;;17.60;99.90;;;;;;5026191;28;20229;-81
2021/08/05 06:17:49;;;;;;;2.93;1.93;;;17.60;99.90;;;;;;5041931;28;20230;-80
2021/08/05 06:20:20;;;;;;;2.80;2.53;;;17.70;99.90;;;;;;5047522;28;20253;-81
2021/08/05 06:22:49;;;;;;;3.87;2.43;;;17.70;99.90;;;;;;5065888;28;20730;-81
2021/08/05 06:25:18;;;;;;;3.63;2.63;;;17.70;99.90;;;;;;5066696;28;20240;-81
2021/08/05 06:27:47;;;;;;;2.90;2.17;;;17.70;99.90;;;;;;5064295;28;20718;-81
2021/08/05 06:30:17;;;;;;;3.97;2.63;;;17.80;99.90;;;;;;5044750;28;20247;-80
2021/08/05 06:32:45;;;;;;;4.00;2.43;;;17.80;99.90;;;;;;5046465;28;20332;-81
2021/08/05 06:35:15;;;;;;;3.43;2.57;;;17.90;99.90;;;;;;5047014;28;20240;-81
2021/08/05 06:37:44;;;;;;;2.93;2.33;;;17.90;99.90;;;;;;5045597;28;20233;-81
2021/08/05 06:40:14;;;;;;;5.20;2.20;;;18.00;99.90;;;;;;5041419;28;20237;-80
2021/08/05 06:42:42;;;;;;;2.80;2.10;;;18.00;99.90;;;;;;5041404;28;20245;-81
2021/08/05 06:45:13;;;;;;;3.17;2.50;;;18.00;99.90;;;;;;5046832;28;20332;-81
2021/08/05 06:47:44;;;;;;;4.80;2.77;;;18.10;99.90;;;;;;5042505;28;20250;-83
2021/08/05 06:50:15;;;;;;;5.37;2.50;;;18.10;99.90;;;;;;5046901;28;20474;-80
2021/08/05 06:52:44;;;;;;;4.20;2.60;;;18.00;99.90;;;;;;5041290;28;20727;-80
2021/08/05 06:55:12;;;;;;;7.93;2.60;;;18.00;99.90;;;;;;5041166;28;20245;-80
2021/08/05 06:57:40;;;;;;;2.87;2.37;;;18.20;99.90;;;;;;5049133;28;20240;-80
2021/08/05 07:00:10;;;;;;;7.07;2.60;;;18.30;99.90;;;;;;5033339;28;20891;-80
2021/08/05 07:02:38;;;;;;;5.40;2.60;;;18.40;99.90;;;;;;5041368;28;20248;-81
2021/08/05 07:05:09;;;;;;;2.67;2.47;;;18.50;99.90;;;;;;5034713;28;20241;-81
2021/08/05 07:07:40;;;;;;;3.17;2.53;;;18.60;99.90;;;;;;5037599;28;20336;-81
2021/08/05 07:10:10;;;;;;;2.53;2.33;;;18.80;99.90;;;;;;5033690;28;20261;-81
2021/08/05 07:12:38;;;;;;;2.47;2.23;;;18.90;99.90;;;;;;5042435;28;20263;-81
2021/08/05 07:15:07;;;;;;;3.03;2.40;;;18.90;99.90;;;;;;5036008;28;20557;-81
2021/08/05 07:17:37;;;;;;;2.77;2.57;;;18.90;99.90;;;;;;5039882;28;20251;-81
2021/08/05 07:20:06;;;;;;;4.10;2.50;;;18.90;99.90;;;;;;5036680;28;20238;-81
2021/08/05 07:22:34;;;;;;;3.70;2.50;;;19.00;99.90;;;;;;5042586;28;20249;-81
2021/08/05 07:25:05;;;;;;;3.00;2.40;;;19.20;99.90;;;;;;5046700;28;20266;-81
2021/08/05 07:27:33;;;;;;;6.13;2.43;;;19.30;99.90;;;;;;5038838;28;20879;-80
2021/08/05 07:30:01;;;;;;;3.17;2.30;;;19.40;99.90;;;;;;5031075;28;20250;-81
2021/08/05 07:32:29;;;;;;;4.33;2.50;;;19.40;99.90;;;;;;5042184;28;20328;-81
2021/08/05 07:34:57;;;;;;;3.17;2.03;;;19.40;99.90;;;;;;5039940;28;20250;-80
2021/08/05 07:37:25;;;;;;;2.87;2.20;;;19.40;99.90;;;;;;5038443;28;20249;-80
2021/08/05 07:39:53;;;;;;;2.60;1.70;;;19.50;99.90;;;;;;5036567;28;20821;-81
2021/08/05 07:42:23;;;;;;;2.40;2.20;;;19.60;99.90;;;;;;5039157;28;20247;-81
2021/08/05 07:44:52;;;;;;;2.53;2.33;;;19.80;99.90;;;;;;5038393;28;20532;-81
2021/08/05 07:47:20;;;;;;;4.97;2.47;;;19.80;99.90;;;;;;5039619;28;20226;-81
2021/08/05 07:49:48;;;;;;;3.97;2.40;;;20.00;99.90;;;;;;5039937;28;20624;-81
2021/08/05 07:52:17;;;;;;;3.03;2.40;;;20.00;99.90;;;;;;5043143;28;20246;-81
2021/08/05 07:54:45;;;;;;;3.10;2.60;;;20.10;99.90;;;;;;5044141;28;20308;-81
2021/08/05 07:57:14;;;;;;;4.60;2.30;;;20.20;99.90;;;;;;5040853;28;20345;-80
2021/08/05 07:59:45;;;;;;;5.80;2.57;;;20.50;99.90;;;;;;5041273;28;20597;-81
2021/08/05 08:02:13;;;;;;;5.67;2.30;;;20.60;99.90;;;;;;5048580;28;20251;-81
2021/08/05 08:04:42;;;;;;;2.50;2.27;;;20.90;99.90;;;;;;5044185;28;20243;-82
2021/08/05 08:07:10;;;;;;;3.80;2.20;;;21.10;99.90;;;;;;5043316;28;20339;-81
2021/08/05 08:09:38;;;;;;;3.00;2.30;;;21.30;99.90;;;;;;5039405;28;20247;-81
2021/08/05 08:12:07;;;;;;;2.90;2.47;;;21.60;99.90;;;;;;5040216;28;20241;-81
2021/08/05 08:14:35;;;;;;;3.87;2.07;;;21.80;99.90;;;;;;5045508;28;20783;-81
2021/08/05 08:17:05;;;;;;;2.50;2.03;;;22.30;99.90;;;;;;5044857;28;20239;-81
2021/08/05 08:19:36;;;;;;;2.27;2.03;;;22.90;99.90;;;;;;5040063;28;20925;-82
2021/08/05 08:22:06;;;;;;;5.43;2.30;;;23.20;99.90;;;;;;5042469;28;20463;-81
2021/08/05 08:24:34;;;;;;;3.77;2.27;;;23.60;99.90;;;;;;5046566;28;20309;-81
2021/08/05 08:27:03;;;;;;;3.80;2.80;;;23.80;99.90;;;;;;5045203;28;20240;-81
2021/08/05 08:29:31;;;;;;;6.07;2.57;;;23.90;99.90;;;;;;5045054;28;20335;-82
2021/08/05 08:32:00;;;;;;;2.67;2.47;;;24.20;99.90;;;;;;5045462;28;20297;-82
2021/08/05 08:34:29;;;;;;;5.77;2.90;;;23.70;99.90;;;;;;5040364;28;20584;-81
2021/08/05 08:36:57;;;;;;;3.77;2.90;;;23.20;99.90;;;;;;5045217;28;20698;-82
2021/08/05 08:39:26;;;;;;;4.77;2.77;;;22.80;99.90;;;;;;5042463;28;20240;-81
2021/08/05 08:41:54;;;;;;;4.10;3.17;;;22.50;99.90;;;;;;5043650;28;20707;-82
2021/08/05 08:44:22;;;;;;;3.10;2.80;;;22.40;99.90;;;;;;5042343;28;20242;-81
2021/08/05 08:46:50;;;;;;;4.67;3.20;;;22.40;99.90;;;;;;5047410;28;20690;-81
2021/08/05 08:49:23;;;;;;;3.43;3.00;;;22.40;99.90;;;;;;5040033;28;20258;-81
2021/08/05 08:51:55;;;;;;;3.73;3.40;;;22.60;99.90;;;;;;5040307;28;20244;-81
2021/08/05 08:54:24;;;;;;;4.97;3.10;;;22.70;99.90;;;;;;5038559;28;20348;-82
2021/08/05 08:56:54;;;;;;;2.87;2.67;;;22.90;99.90;;;;;;5044041;28;20235;-82
2021/08/05 08:59:23;;;;;;;3.97;2.70;;;23.10;99.90;;;;;;5036019;28;20236;-82
2021/08/05 09:01:51;;;;;;;4.03;2.87;;;23.10;99.90;;;;;;5046276;28;20235;-81
2021/08/05 09:04:20;;;;;;;5.00;3.10;;;23.00;99.90;;;;;;5039022;28;20766;-82
2021/08/05 09:06:49;;;;;;;3.17;2.87;;;22.90;99.90;;;;;;5043852;28;20247;-83
2021/08/05 09:09:18;;;;;;;4.17;3.47;;;22.90;99.90;;;;;;5036063;28;20263;-82
2021/08/05 09:11:47;;;;;;;4.30;3.87;;;22.80;99.90;;;;;;5044625;28;20725;-83
2021/08/05 09:14:37;;;;;;;4.80;4.30;;;22.70;99.90;;;;;;5035206;28;20722;-81
2021/08/05 09:17:20;;;;;;;4.60;3.77;;;22.50;99.90;;;;;;5047430;28;20235;-82
2021/08/05 09:19:50;;;;;;;4.23;3.83;;;22.50;99.90;;;;;;5043026;28;20238;-83
2021/08/05 09:22:40;;;;;;;4.20;3.73;;;22.70;99.90;;;;;;5039343;28;20875;-82
2021/08/05 09:25:30;;;;;;;3.90;3.50;;;22.60;99.90;;;;;;5044154;28;20258;-81
2021/08/05 09:28:01;;;;;;;3.83;3.43;;;22.70;99.90;;;;;;5043472;28;20252;-81
2021/08/05 09:30:35;;;;;;;4.00;3.60;;;22.60;99.90;;;;;;5043357;28;20259;-81
2021/08/05 09:33:05;;;;;;;4.47;3.97;;;22.50;99.90;;;;;;5042460;28;20239;-81
2021/08/05 09:35:34;;;;;;;4.37;3.83;;;22.40;99.90;;;;;;5046435;28;20695;-79
2021/08/05 09:38:17;;;;;;;4.47;3.77;;;22.30;99.90;;;;;;5037950;28;20244;-82
2021/08/05 09:40:47;;;;;;;4.20;3.70;;;22.50;99.90;;;;;;5047591;28;20820;-81
2021/08/05 09:43:24;;;;;;;5.27;3.70;;;22.60;99.90;;;;;;5050768;28;20254;-81
2021/08/05 09:45:52;;;;;;;4.80;3.77;;;22.60;99.90;;;;;;5040449;28;20877;-82
2021/08/05 09:48:38;;;;;;;4.37;3.63;;;22.50;99.90;;;;;;5040153;28;20236;-79
2021/08/05 09:51:08;;;;;;;5.10;4.07;;;22.50;99.90;;;;;;5044825;28;20260;-78
2021/08/05 09:53:52;;;;;;;5.67;3.53;;;22.70;99.90;;;;;;5040024;28;20250;-83
2021/08/05 09:56:21;;;;;;;5.40;3.13;;;23.00;99.90;;;;;;5046988;28;20240;-81
2021/08/05 09:58:50;;;;;;;6.20;4.30;;;23.30;99.90;;;;;;5047706;28;20256;-79
2021/08/05 10:01:19;;;;;;;4.83;3.87;;;23.20;99.90;;;;;;5049449;28;20250;-79
2021/08/05 10:03:47;;;;;;;4.50;3.87;;;23.30;99.90;;;;;;5053952;28;20289;-79
2021/08/05 10:06:16;;;;;;;5.73;4.20;;;23.50;99.90;;;;;;5054038;28;20301;-79
2021/08/05 10:08:44;;;;;;;3.97;3.57;;;23.80;99.90;;;;;;5046571;28;20320;-80
2021/08/05 10:11:13;;;;;;;3.90;3.37;;;24.40;99.90;;;;;;5057074;28;20236;-79
2021/08/05 10:13:43;;;;;;;4.50;3.70;;;24.60;99.90;;;;;;5045924;28;20238;-79
2021/08/05 10:16:12;;;;;;;4.70;4.20;;;24.70;99.90;;;;;;5046353;28;20845;-80
2021/08/05 10:18:41;;;;;;;3.90;3.50;;;25.00;99.90;;;;;;5044279;28;20246;-80
2021/08/05 10:21:13;;;;;;;5.20;3.90;;;24.90;99.90;;;;;;5052732;28;20242;-84
2021/08/05 10:23:44;;;;;;;5.93;3.70;;;24.60;99.90;;;;;;5049487;28;20236;-83
2021/08/05 10:26:12;;;;;;;5.13;3.53;;;24.30;99.90;;;;;;5049782;28;20338;-82
2021/08/05 10:28:42;;;;;;;5.70;3.70;;;24.20;99.90;;;;;;5043840;28;20624;-82
2021/08/05 10:31:14;;;;;;;5.07;3.80;;;24.20;99.90;;;;;;5047345;28;20232;-82
2021/08/05 10:33:46;;;;;;;3.80;3.50;;;24.00;99.90;;;;;;5039318;28;20279;-82
2021/08/05 10:36:14;;;;;;;3.90;3.50;;;23.80;99.90;;;;;;5044456;28;20248;-82
2021/08/05 10:38:43;;;;;;;4.83;4.10;;;23.50;99.90;;;;;;5047982;28;20713;-80
2021/08/05 10:41:12;;;;;;;6.23;4.03;;;23.10;99.90;;;;;;5042877;28;20245;-82
2021/08/05 10:43:42;;;;;;;4.90;4.43;;;22.90;99.90;;;;;;5033494;28;20239;-82
2021/08/05 10:46:11;;;;;;;4.40;3.87;;;22.60;99.90;;;;;;5050116;28;20243;-83
2021/08/05 10:48:39;;;;;;;10.50;4.27;;;22.40;99.90;;;;;;5047614;28;20243;-82
2021/08/05 10:51:07;;;;;;;8.53;4.80;;;22.00;99.90;;;;;;5044778;28;20251;-81
2021/08/05 10:53:46;;;;;;;7.03;4.80;;;21.70;99.90;;;;;;5044607;28;20235;-81
2021/08/05 10:56:23;;;;;;;6.97;4.57;;;21.50;99.90;;;;;;5046800;28;20250;-81
2021/08/05 10:59:11;;;;;;;6.07;5.57;;;21.20;99.90;;;;;;5044493;28;20235;-82
2021/08/05 11:01:51;;;;;;;7.70;5.83;;;20.90;99.90;;;;;;5043995;28;20993;-82
2021/08/05 11:04:46;;;;;;;7.67;6.03;;;20.50;99.90;;;;;;5023271;28;20242;-82
2021/08/05 11:07:32;;;;;;;7.07;6.07;;;20.20;99.90;;;;;;5043498;28;20343;-83
2021/08/05 11:10:26;;;;;;;8.03;5.50;;;20.00;99.90;;;;;;5036221;28;20238;-81
2021/08/05 11:12:56;;;;;;;5.87;5.33;;;19.80;99.90;;;;;;5039405;28;20304;-82
2021/08/05 11:15:48;;;;;;;5.60;5.10;;;19.70;99.90;;;;;;5039637;28;20820;-82
2021/08/05 11:18:23;;;;;;;5.27;4.77;;;19.70;99.90;;;;;;5038454;28;20579;-83
2021/08/05 11:21:37;;;;;;;5.63;4.43;;;19.70;99.90;;;;;;5043352;28;20264;-82
2021/08/05 11:24:06;;;;;;;4.10;3.80;;;19.80;99.90;;;;;;5041015;28;20317;-83
2021/08/05 11:26:34;;;;;;;4.40;4.00;;;19.90;99.90;;;;;;5047653;28;20296;-83
2021/08/05 11:29:02;;;;;;;4.57;3.80;;;19.90;99.90;;;;;;5030559;28;20735;-82
2021/08/05 11:31:38;;;;;;;4.40;3.70;;;19.80;99.90;;;;;;5043509;28;20243;-84
2021/08/05 11:34:12;;;;;;;5.13;3.73;;;19.90;99.90;;;;;;5042752;28;20238;-84
2021/08/05 11:36:46;;;;;;;4.10;3.50;;;19.80;99.90;;;;;;5038707;28;20253;-84
2021/08/05 11:39:25;;;;;;;3.90;3.50;;;19.80;99.90;;;;;;5038901;28;20324;-84
2021/08/05 11:41:59;;;;;;;4.30;3.40;;;19.90;99.90;;;;;;5037652;28;20263;-83
2021/08/05 11:44:31;;;;;;;3.87;3.57;;;19.90;99.90;;;;;;5040336;28;21063;-84
2021/08/05 11:47:19;;;;;;;4.00;3.70;;;20.00;99.90;;;;;;5038331;28;20702;-84
2021/08/05 11:49:50;;;;;;;5.23;4.13;;;20.10;99.90;;;;;;5032098;28;20723;-83
2021/08/05 11:52:20;;;;;;;5.13;4.63;;;20.20;99.90;;;;;;5034734;28;20466;-87
2021/08/05 11:54:50;;;;;;;5.57;4.70;;;20.20;99.90;;;;;;5044276;28;20242;-88
2021/08/05 11:57:20;;;;;;;5.20;4.70;;;20.20;99.90;;;;;;5044087;28;20258;-88
2021/08/05 11:59:51;;;;;;;5.10;4.33;;;20.20;99.90;;;;;;5041808;28;20719;-88
2021/08/05 12:02:22;;;;;;;4.60;4.20;;;20.30;99.90;;;;;;5051834;28;20785;-88
2021/08/05 12:04:52;;;;;;;4.80;4.40;;;20.50;99.90;;;;;;5065329;28;20235;-88
2021/08/05 12:07:23;;;;;;;4.47;4.07;;;20.50;99.90;;;;;;5050040;28;20232;-88
2021/08/05 12:09:53;;;;;;;5.40;4.30;;;20.80;99.90;;;;;;5034672;28;20264;-87
2021/08/05 12:12:24;;;;;;;4.60;4.20;;;21.00;99.90;;;;;;5057922;28;20345;-88
2021/08/05 12:14:54;;;;;;;4.40;4.00;;;21.30;99.90;;;;;;5055844;28;20231;-87
2021/08/05 12:17:43;;;;;;;4.70;4.30;;;21.40;99.90;;;;;;5035129;28;20638;-87
2021/08/05 12:20:17;;;;;;;4.50;4.10;;;21.50;99.90;;;;;;5030244;28;20693;-86
2021/08/05 12:22:48;;;;;;;4.70;4.30;;;21.70;99.90;;;;;;5034644;28;20293;-87
2021/08/05 12:25:29;;;;;;;6.93;4.90;;;22.00;99.90;;;;;;5028209;28;20240;-87
2021/08/05 12:28:03;;;;;;;4.80;4.13;;;22.10;99.90;;;;;;5055530;28;20368;-87
2021/08/05 12:30:43;;;;;;;4.77;4.33;;;22.40;99.90;;;;;;5041070;28;20304;-86
2021/08/05 12:33:22;;;;;;;4.37;3.97;;;22.80;99.90;;;;;;5056588;28;20251;-87
2021/08/05 12:36:08;;;;;;;5.40;4.20;;;23.10;99.90;;;;;;5040795;28;20232;-88
2021/08/05 12:38:44;;;;;;;4.93;4.47;;;23.30;99.90;;;;;;5038061;28;20758;-88
2021/08/05 12:41:21;;;;;;;4.73;3.90;;;23.50;99.90;;;;;;5044962;28;20241;-88
2021/08/05 12:43:51;;;;;;;4.57;4.17;;;23.60;99.90;;;;;;5036484;28;20232;-88
2021/08/05 12:46:19;;;;;;;5.03;4.50;;;23.60;99.90;;;;;;5036101;28;20236;-87
2021/08/05 12:48:52;;;;;;;4.87;4.47;;;23.60;99.90;;;;;;5041762;28;20322;-88
2021/08/05 12:51:21;;;;;;;5.07;4.67;;;23.50;99.90;;;;;;5042209;28;20614;-87
2021/08/05 12:53:49;;;;;;;4.60;4.20;;;23.40;99.90;;;;;;5036117;28;20238;-88
2021/08/05 12:56:17;;;;;;;4.30;4.00;;;23.20;99.90;;;;;;5041285;28;20238;-88
2021/08/05 12:58:57;;;;;;;4.60;4.20;;;23.20;99.90;;;;;;5036123;28;20622;-88
2021/08/05 13:01:39;;;;;;;5.72;4.32;;;23.00;99.90;;;;;;1748417;28;10023046;-87
2021/08/05 13:04:24;;;;;;;4.73;3.60;;;22.80;99.90;;;;;;4690754;28;10001274;-88